Time;durP1;ratioP1;P1;durP2;ratioP2;P2;SDS_P1;SDS_P2;PMS_P1;PMS_P2;Temp;Humidity;BMP_temperature;BMP_pressure;BME280_temperature;BME280_humidity;BME280_pressure;Samples;Min_cycle;Max_cycle;Signal;HPM_P1;HPM_P2
2022/05/26 00:00:40;;;;;;;1.50;0.60;;;19.90;97.60;;;;;;5035535;28;20048;-75
2022/05/26 00:03:07;;;;;;;2.65;1.10;;;19.90;97.50;;;;;;5032099;28;20045;-74
2022/05/26 00:05:35;;;;;;;3.20;1.00;;;19.90;97.50;;;;;;5054181;28;20036;-74
2022/05/26 00:08:01;;;;;;;4.00;1.33;;;19.90;97.50;;;;;;5020733;28;20417;-74
2022/05/26 00:10:27;;;;;;;1.90;0.80;;;19.90;97.50;;;;;;5033924;28;20048;-74
2022/05/26 00:12:53;;;;;;;3.55;1.08;;;19.90;97.40;;;;;;5025754;28;20095;-74
2022/05/26 00:15:18;;;;;;;3.28;0.77;;;19.80;97.50;;;;;;5027485;28;20599;-75
2022/05/26 00:17:44;;;;;;;3.05;0.95;;;19.90;97.40;;;;;;5023933;28;20056;-74
2022/05/26 00:20:11;;;;;;;2.00;0.82;;;19.90;97.70;;;;;;5022341;28;20045;-73
2022/05/26 00:22:37;;;;;;;2.55;0.80;;;19.80;98.90;;;;;;5026408;28;20046;-74
2022/05/26 00:25:04;;;;;;;3.00;1.10;;;19.60;99.20;;;;;;5025668;28;20037;-74
2022/05/26 00:27:30;;;;;;;3.08;1.10;;;19.60;99.60;;;;;;5026025;28;20130;-73
2022/05/26 00:29:56;;;;;;;1.30;0.80;;;19.50;99.50;;;;;;5022010;28;20045;-74
2022/05/26 00:32:22;;;;;;;3.13;0.73;;;19.40;99.70;;;;;;5020204;28;20134;-73
2022/05/26 00:34:48;;;;;;;2.80;1.00;;;19.40;99.80;;;;;;5041800;28;20042;-74
2022/05/26 00:37:14;;;;;;;1.58;0.60;;;19.40;99.80;;;;;;5026147;28;20566;-74
2022/05/26 00:39:40;;;;;;;2.35;0.80;;;19.50;99.50;;;;;;5027453;28;20038;-74
2022/05/26 00:42:10;;;;;;;2.95;1.25;;;19.50;99.00;;;;;;5037741;28;20473;-73
2022/05/26 00:44:37;;;;;;;3.38;1.00;;;19.50;98.80;;;;;;5023557;28;20054;-73
2022/05/26 00:47:14;;;;;;;2.13;0.80;;;19.50;98.90;;;;;;5021702;28;20050;-74
2022/05/26 00:49:53;;;;;;;2.78;0.90;;;19.60;98.00;;;;;;5039242;28;20049;-74
2022/05/26 00:52:27;;;;;;;1.23;0.65;;;19.60;97.20;;;;;;5021161;28;20038;-74
2022/05/26 00:54:55;;;;;;;1.98;0.70;;;19.70;96.50;;;;;;5023782;28;20030;-74
2022/05/26 00:57:30;;;;;;;1.33;0.75;;;19.80;95.90;;;;;;5024396;28;20038;-75
2022/05/26 01:00:10;;;;;;;3.00;0.80;;;19.80;95.20;;;;;;5023714;28;20619;-75
2022/05/26 01:02:47;;;;;;;5.38;1.23;;;19.80;95.00;;;;;;5022165;28;20057;-74
2022/05/26 01:05:22;;;;;;;3.65;0.77;;;19.80;94.70;;;;;;5025450;28;20125;-73
2022/05/26 01:07:50;;;;;;;0.95;0.70;;;19.90;94.30;;;;;;5028800;28;20368;-74
2022/05/26 01:10:16;;;;;;;1.88;0.85;;;19.80;94.10;;;;;;5039442;28;20076;-74
2022/05/26 01:12:43;;;;;;;4.85;0.85;;;19.90;93.60;;;;;;5031008;28;20049;-75
2022/05/26 01:15:20;;;;;;;2.20;0.60;;;19.90;93.50;;;;;;5034655;28;20381;-74
2022/05/26 01:18:08;;;;;;;2.45;0.65;;;19.90;93.70;;;;;;5022016;28;20052;-74
2022/05/26 01:20:40;;;;;;;2.10;0.55;;;19.80;93.40;;;;;;5049088;28;20102;-74
2022/05/26 01:23:12;;;;;;;2.75;0.70;;;19.80;93.70;;;;;;5010870;28;20048;-73
2022/05/26 01:25:56;;;;;;;2.28;0.95;;;19.80;93.90;;;;;;5009029;28;20034;-74
2022/05/26 01:28:52;;;;;;;1.05;0.60;;;19.80;93.70;;;;;;5053823;28;20053;-74
2022/05/26 01:31:43;;;;;;;1.50;0.70;;;19.90;93.60;;;;;;5039104;28;20034;-74
2022/05/26 01:34:27;;;;;;;1.58;0.60;;;19.80;93.50;;;;;;5037343;28;20077;-74
2022/05/26 01:36:59;;;;;;;2.47;0.75;;;19.90;93.20;;;;;;5027714;28;20033;-73
2022/05/26 01:39:48;;;;;;;2.58;0.75;;;19.90;92.70;;;;;;5021856;28;20033;-74
2022/05/26 01:42:21;;;;;;;4.13;0.63;;;19.90;92.60;;;;;;5018921;28;20041;-73
2022/05/26 01:44:49;;;;;;;1.42;0.60;;;19.90;92.60;;;;;;5039525;28;20108;-73
2022/05/26 01:47:39;;;;;;;1.95;0.68;;;19.90;92.50;;;;;;5037327;28;20124;-73
2022/05/26 01:50:30;;;;;;;2.63;0.65;;;19.90;92.60;;;;;;5033374;28;20581;-74
2022/05/26 01:53:16;;;;;;;1.55;0.68;;;19.90;92.50;;;;;;5025440;28;20095;-73
2022/05/26 01:56:09;;;;;;;1.67;0.73;;;19.90;92.60;;;;;;5018598;28;20051;-73
2022/05/26 01:58:47;;;;;;;2.10;0.77;;;19.80;94.10;;;;;;5023491;28;20045;-74
2022/05/26 02:01:23;;;;;;;2.55;0.82;;;19.80;93.70;;;;;;5019250;28;20034;-74
2022/05/26 02:03:50;;;;;;;3.22;0.77;;;19.70;94.50;;;;;;5020782;28;20068;-73
2022/05/26 02:06:29;;;;;;;1.58;0.80;;;19.70;93.80;;;;;;5053962;28;20559;-74
2022/05/26 02:09:06;;;;;;;6.30;0.80;;;19.70;93.50;;;;;;5020227;28;20038;-74
2022/05/26 02:11:33;;;;;;;1.95;0.70;;;19.70;93.90;;;;;;5022958;28;20026;-74
2022/05/26 02:14:13;;;;;;;3.17;0.70;;;19.70;93.70;;;;;;5025356;28;20385;-73
2022/05/26 02:17:13;;;;;;;1.45;0.65;;;19.70;93.80;;;;;;5022239;28;20472;-74
2022/05/26 02:19:46;;;;;;;2.60;0.68;;;19.60;93.70;;;;;;5012127;28;20076;-73
2022/05/26 02:22:23;;;;;;;2.08;0.80;;;19.60;93.80;;;;;;5020747;28;20119;-73
2022/05/26 02:24:49;;;;;;;5.43;1.00;;;19.50;94.60;;;;;;5037011;28;20285;-74
2022/05/26 02:27:17;;;;;;;1.88;0.90;;;19.40;94.70;;;;;;5024697;28;20052;-73
2022/05/26 02:29:51;;;;;;;1.63;0.88;;;19.40;94.60;;;;;;5034472;28;20353;-74
2022/05/26 02:32:30;;;;;;;2.40;0.70;;;19.40;94.90;;;;;;5021893;28;20056;-73
2022/05/26 02:34:59;;;;;;;2.20;0.70;;;19.30;95.20;;;;;;5025003;28;20048;-75
2022/05/26 02:37:26;;;;;;;1.77;0.68;;;19.30;95.30;;;;;;5037393;28;20567;-75
2022/05/26 02:39:53;;;;;;;3.75;1.02;;;19.30;95.10;;;;;;5033090;28;20050;-74
2022/05/26 02:42:21;;;;;;;1.25;0.70;;;19.20;94.90;;;;;;5019007;28;20038;-74
2022/05/26 02:44:48;;;;;;;1.42;0.70;;;19.20;94.80;;;;;;5023471;28;20064;-74
2022/05/26 02:47:51;;;;;;;1.80;0.88;;;19.30;94.80;;;;;;5034390;28;20036;-73
2022/05/26 02:50:26;;;;;;;1.55;0.70;;;19.20;94.50;;;;;;5054489;28;20906;-74
2022/05/26 02:53:29;;;;;;;2.30;0.75;;;19.20;94.60;;;;;;5040378;28;20042;-73
2022/05/26 02:56:22;;;;;;;1.83;0.70;;;19.20;95.00;;;;;;5019874;28;20066;-74
2022/05/26 02:58:58;;;;;;;2.95;0.70;;;19.10;95.20;;;;;;5019628;28;20038;-74
2022/05/26 03:01:31;;;;;;;1.85;0.73;;;19.20;95.20;;;;;;5020726;28;20078;-74
2022/05/26 03:04:07;;;;;;;1.88;0.85;;;19.10;95.10;;;;;;5023171;28;20037;-73
2022/05/26 03:06:39;;;;;;;1.88;0.70;;;19.10;95.30;;;;;;5034952;28;20036;-74
2022/05/26 03:09:07;;;;;;;1.38;0.60;;;19.00;95.60;;;;;;5036527;28;20034;-73
2022/05/26 03:11:48;;;;;;;2.45;0.70;;;19.00;95.80;;;;;;5019324;28;20471;-74
2022/05/26 03:14:16;;;;;;;2.63;0.93;;;19.00;95.90;;;;;;5048160;28;20394;-74
2022/05/26 03:16:43;;;;;;;1.70;0.68;;;19.00;95.90;;;;;;5033047;28;20923;-74
2022/05/26 03:19:09;;;;;;;2.08;1.00;;;19.00;96.00;;;;;;4993072;28;20049;-74
2022/05/26 03:21:35;;;;;;;1.88;0.90;;;19.00;96.10;;;;;;5027473;28;20037;-73
2022/05/26 03:24:01;;;;;;;2.50;0.80;;;19.00;96.20;;;;;;5034356;28;20107;-74
2022/05/26 03:26:27;;;;;;;3.47;0.90;;;19.00;96.40;;;;;;5034957;28;20037;-73
2022/05/26 03:28:54;;;;;;;1.83;0.73;;;19.00;96.40;;;;;;5023493;28;20723;-74
2022/05/26 03:31:20;;;;;;;3.38;1.00;;;19.00;96.60;;;;;;4995675;28;20072;-73
2022/05/26 03:42:17;;;;;;;2.20;0.90;;;18.90;96.80;;;;;;5019674;28;20610;-74
2022/05/26 03:44:44;;;;;;;2.22;0.95;;;18.90;96.70;;;;;;5034349;28;20181;-74
2022/05/26 03:47:11;;;;;;;4.13;0.90;;;18.90;96.50;;;;;;5016218;28;20061;-73
2022/05/26 03:49:37;;;;;;;1.40;0.80;;;18.90;95.70;;;;;;5036621;28;20049;-74
2022/05/26 03:52:03;;;;;;;1.80;0.70;;;18.90;95.60;;;;;;5021673;28;20052;-74
2022/05/26 03:54:30;;;;;;;2.38;0.70;;;18.90;95.60;;;;;;5021981;28;20522;-74
2022/05/26 03:56:57;;;;;;;3.00;0.90;;;18.90;96.00;;;;;;5029082;28;20043;-73
2022/05/26 03:59:23;;;;;;;1.77;0.80;;;18.90;95.90;;;;;;5019526;28;20088;-74
2022/05/26 04:01:48;;;;;;;2.90;0.80;;;18.80;95.80;;;;;;5021172;28;20584;-73
2022/05/26 04:04:14;;;;;;;4.03;1.20;;;18.80;95.60;;;;;;4992529;28;20046;-74
2022/05/26 04:06:40;;;;;;;2.13;0.70;;;18.70;95.80;;;;;;5037239;28;20045;-73
2022/05/26 04:09:07;;;;;;;3.10;0.70;;;18.70;96.00;;;;;;5022082;28;20398;-75
2022/05/26 04:11:34;;;;;;;3.75;0.80;;;18.60;96.00;;;;;;5020370;28;20033;-74
2022/05/26 04:13:59;;;;;;;3.90;0.73;;;18.60;95.90;;;;;;5017269;28;20034;-77
2022/05/26 04:16:25;;;;;;;4.25;0.80;;;18.60;95.60;;;;;;5022557;28;20029;-74
2022/05/26 04:18:52;;;;;;;2.63;0.70;;;18.60;95.50;;;;;;5036907;28;20055;-75
2022/05/26 04:21:18;;;;;;;1.25;0.70;;;18.60;95.60;;;;;;5019157;28;20042;-74
2022/05/26 04:23:44;;;;;;;2.60;0.60;;;18.60;95.40;;;;;;5022285;28;20132;-74
2022/05/26 04:26:11;;;;;;;2.33;0.85;;;18.60;95.60;;;;;;5031518;28;20557;-73
2022/05/26 04:28:38;;;;;;;2.58;0.90;;;18.60;95.30;;;;;;5020591;28;20091;-74
2022/05/26 04:31:04;;;;;;;4.40;0.90;;;18.60;95.40;;;;;;5018280;28;20437;-74
2022/05/26 04:33:31;;;;;;;5.30;1.13;;;18.60;95.60;;;;;;5021084;28;20034;-72
2022/05/26 04:35:57;;;;;;;2.05;1.00;;;18.40;95.70;;;;;;5021506;28;20540;-74
2022/05/26 04:38:23;;;;;;;2.53;0.90;;;18.30;95.40;;;;;;5032503;28;20038;-74
2022/05/26 04:41:00;;;;;;;1.73;0.80;;;18.30;95.80;;;;;;5021972;28;20098;-74
2022/05/26 04:43:27;;;;;;;2.30;0.75;;;18.30;95.70;;;;;;5056694;28;20091;-74
2022/05/26 04:45:53;;;;;;;1.52;0.80;;;18.30;95.60;;;;;;5023457;28;20101;-73
2022/05/26 04:48:21;;;;;;;3.25;1.13;;;18.30;95.40;;;;;;5030835;28;20180;-74
2022/05/26 04:50:52;;;;;;;2.78;0.70;;;18.20;95.50;;;;;;5027276;28;20045;-75
2022/05/26 04:53:19;;;;;;;2.72;0.60;;;18.30;95.40;;;;;;5034386;28;20034;-75
2022/05/26 04:55:46;;;;;;;6.05;0.90;;;18.30;95.10;;;;;;5020517;28;20037;-74
2022/05/26 04:58:12;;;;;;;2.72;1.17;;;18.30;95.00;;;;;;5026332;28;20036;-73
2022/05/26 05:00:40;;;;;;;3.50;0.90;;;18.30;94.70;;;;;;5056708;28;20052;-74
2022/05/26 05:03:06;;;;;;;4.90;0.70;;;18.30;94.70;;;;;;5031178;28;20406;-75
2022/05/26 05:05:33;;;;;;;2.92;0.90;;;18.30;94.80;;;;;;5027067;28;20489;-74
2022/05/26 05:07:58;;;;;;;3.22;0.70;;;18.30;95.00;;;;;;5046028;28;20030;-74
2022/05/26 05:10:24;;;;;;;1.75;0.88;;;18.30;95.00;;;;;;5020705;28;20050;-74
2022/05/26 05:12:51;;;;;;;1.88;0.80;;;18.20;94.90;;;;;;5027138;28;20045;-74
2022/05/26 05:15:27;;;;;;;3.03;0.98;;;18.30;95.10;;;;;;5028823;28;20034;-73
2022/05/26 05:17:53;;;;;;;4.28;0.80;;;18.30;95.30;;;;;;5026437;28;20052;-74
2022/05/26 05:20:18;;;;;;;1.83;1.00;;;18.30;94.60;;;;;;5001353;28;20403;-74
2022/05/26 05:22:49;;;;;;;4.00;1.30;;;18.30;95.30;;;;;;5011257;28;20752;-73
2022/05/26 05:25:20;;;;;;;4.15;1.17;;;18.30;95.30;;;;;;5017664;28;20486;-74
2022/05/26 05:28:04;;;;;;;3.33;1.00;;;18.30;95.40;;;;;;5032703;28;20520;-75
2022/05/26 05:30:38;;;;;;;3.75;1.58;;;18.20;95.70;;;;;;5027743;28;20044;-74
2022/05/26 05:33:19;;;;;;;10.13;3.83;;;18.20;96.00;;;;;;5043348;28;20394;-74
2022/05/26 05:35:56;;;;;;;4.03;1.45;;;18.20;96.20;;;;;;5025311;28;20591;-73
2022/05/26 05:38:23;;;;;;;2.65;0.88;;;18.20;95.70;;;;;;5027024;28;20040;-75
2022/05/26 05:40:50;;;;;;;4.47;0.85;;;18.20;94.50;;;;;;5028118;28;20140;-74
2022/05/26 05:43:16;;;;;;;3.00;1.00;;;18.10;94.60;;;;;;5022202;28;20668;-73
2022/05/26 05:45:44;;;;;;;2.25;0.80;;;18.10;95.00;;;;;;5029245;28;20033;-73
2022/05/26 05:48:10;;;;;;;3.42;0.88;;;18.10;94.80;;;;;;5022712;28;20048;-74
2022/05/26 05:50:37;;;;;;;1.67;0.70;;;18.00;95.10;;;;;;5023102;28;20053;-73
2022/05/26 05:53:04;;;;;;;3.22;0.63;;;18.00;94.70;;;;;;4996356;28;20034;-74
2022/05/26 05:55:31;;;;;;;2.55;0.77;;;18.10;94.80;;;;;;5024417;28;20128;-74
2022/05/26 05:57:59;;;;;;;4.40;0.80;;;18.10;94.80;;;;;;5055521;28;20076;-73
2022/05/26 06:00:25;;;;;;;1.58;0.80;;;18.20;94.90;;;;;;5022233;28;20896;-74
2022/05/26 06:02:50;;;;;;;4.25;0.90;;;18.30;95.00;;;;;;5024019;28;20123;-73
2022/05/26 06:05:16;;;;;;;2.03;0.90;;;18.40;94.90;;;;;;5041232;28;20041;-74
2022/05/26 06:07:42;;;;;;;2.88;0.75;;;18.40;94.70;;;;;;5003420;28;20045;-75
2022/05/26 06:10:11;;;;;;;11.02;0.90;;;18.50;94.80;;;;;;5019566;28;20046;-74
2022/05/26 06:12:38;;;;;;;2.45;0.70;;;18.40;94.60;;;;;;4996484;28;20045;-75
2022/05/26 06:15:05;;;;;;;1.10;0.70;;;18.50;94.60;;;;;;5018677;28;20175;-74
2022/05/26 06:17:31;;;;;;;6.20;1.38;;;18.40;94.50;;;;;;5028898;28;20040;-74
2022/05/26 06:19:57;;;;;;;4.50;0.60;;;18.40;94.80;;;;;;5027350;28;20040;-74
2022/05/26 06:22:24;;;;;;;4.05;0.80;;;18.40;94.90;;;;;;5037698;28;20033;-74
2022/05/26 06:24:50;;;;;;;6.53;1.10;;;18.40;95.10;;;;;;5025425;28;20033;-72
2022/05/26 06:30:07;;;;;;;2.65;0.80;;;18.50;94.50;;;;;;5025336;28;20191;-72
2022/05/26 06:38:27;;;;;;;3.90;1.10;;;18.90;94.00;;;;;;5021524;28;20475;-72
2022/05/26 06:40:53;;;;;;;2.97;0.85;;;19.00;93.60;;;;;;5022882;28;20044;-73
2022/05/26 06:43:19;;;;;;;7.00;1.15;;;19.10;93.70;;;;;;5024003;28;20033;-73
2022/05/26 06:45:47;;;;;;;3.75;0.90;;;19.10;93.40;;;;;;5021869;28;20535;-74
2022/05/26 06:48:13;;;;;;;4.07;0.88;;;19.10;93.30;;;;;;5036032;28;20069;-74
2022/05/26 06:50:40;;;;;;;3.47;1.00;;;19.20;93.50;;;;;;5019197;28;20041;-74
2022/05/26 06:53:07;;;;;;;3.10;1.10;;;19.20;93.70;;;;;;5023624;28;20497;-73
2022/05/26 06:55:33;;;;;;;3.63;1.10;;;19.20;94.00;;;;;;5028202;28;20049;-75
2022/05/26 06:58:00;;;;;;;5.53;1.25;;;19.20;94.20;;;;;;5020610;28;20454;-73
2022/05/26 07:00:26;;;;;;;3.97;1.08;;;19.20;94.50;;;;;;5026428;28;20451;-74
2022/05/26 07:02:53;;;;;;;4.45;0.93;;;19.20;94.50;;;;;;5023422;28;20077;-74
2022/05/26 07:05:19;;;;;;;4.28;1.25;;;19.20;94.30;;;;;;5022467;28;20152;-73
2022/05/26 07:07:46;;;;;;;3.38;1.00;;;19.20;94.50;;;;;;5021700;28;20033;-73
2022/05/26 07:10:13;;;;;;;6.47;1.27;;;19.20;94.80;;;;;;5021145;28;20073;-73
2022/05/26 07:12:41;;;;;;;4.30;1.10;;;19.30;94.60;;;;;;5037519;28;20060;-73
2022/05/26 07:15:08;;;;;;;5.78;1.20;;;19.40;94.60;;;;;;5021466;28;20045;-72
2022/05/26 07:17:36;;;;;;;3.58;0.90;;;19.50;94.90;;;;;;5048707;28;20041;-73
2022/05/26 07:20:04;;;;;;;2.55;0.90;;;19.50;94.30;;;;;;5022189;28;20128;-72
2022/05/26 07:22:34;;;;;;;2.90;1.25;;;19.60;94.30;;;;;;5001705;28;20045;-73
2022/05/26 07:25:00;;;;;;;3.15;1.02;;;19.70;94.00;;;;;;5046819;28;20512;-72
2022/05/26 07:27:26;;;;;;;6.85;1.02;;;19.70;93.70;;;;;;4998668;28;20034;-73
2022/05/26 07:29:53;;;;;;;4.35;1.10;;;19.80;93.70;;;;;;5001371;28;20486;-73
2022/05/26 07:32:19;;;;;;;6.63;1.20;;;19.90;93.10;;;;;;4998217;28;20060;-73
2022/05/26 07:34:45;;;;;;;3.17;1.05;;;20.00;92.90;;;;;;5002604;28;20130;-73
2022/05/26 07:42:40;;;;;;;4.88;2.15;;;20.20;93.00;;;;;;4997818;28;20057;-74
2022/05/26 07:45:08;;;;;;;5.78;1.00;;;20.30;92.50;;;;;;5004212;28;20053;-74
2022/05/26 07:47:35;;;;;;;4.63;1.23;;;20.40;92.30;;;;;;5029155;28;20042;-74
2022/05/26 07:50:01;;;;;;;4.72;1.02;;;20.50;92.50;;;;;;5020653;28;20045;-75
2022/05/26 07:52:26;;;;;;;3.55;1.15;;;20.60;92.40;;;;;;5014568;28;20041;-73
2022/05/26 07:54:53;;;;;;;4.18;1.20;;;20.60;92.00;;;;;;5026466;28;20690;-74
2022/05/26 07:57:22;;;;;;;3.92;1.10;;;20.80;92.00;;;;;;5039612;28;20123;-73
2022/05/26 07:59:50;;;;;;;5.10;1.15;;;21.00;92.30;;;;;;5030333;28;20041;-73
2022/05/26 08:02:18;;;;;;;3.95;1.00;;;21.00;92.70;;;;;;5025582;28;20052;-74
2022/05/26 08:04:45;;;;;;;7.95;1.23;;;21.00;93.20;;;;;;5010428;28;20053;-74
2022/05/26 08:07:11;;;;;;;6.68;1.40;;;20.90;93.40;;;;;;5010578;28;20049;-74
2022/05/26 08:09:40;;;;;;;3.95;1.35;;;20.80;93.90;;;;;;5017978;28;20107;-74
2022/05/26 08:12:11;;;;;;;7.70;1.40;;;20.70;93.70;;;;;;5014431;28;20505;-73
2022/05/26 08:14:39;;;;;;;4.15;0.95;;;20.70;93.90;;;;;;5015081;28;20053;-73
2022/05/26 08:17:06;;;;;;;5.45;1.33;;;20.60;93.90;;;;;;5049455;28;20481;-74
2022/05/26 08:19:33;;;;;;;3.60;1.08;;;20.60;93.70;;;;;;5016378;28;20083;-75
2022/05/26 08:22:00;;;;;;;5.75;1.02;;;20.70;94.20;;;;;;5021333;28;20571;-75
2022/05/26 08:24:26;;;;;;;4.93;0.70;;;20.70;93.70;;;;;;5020482;28;20038;-74
2022/05/26 08:26:53;;;;;;;1.60;0.70;;;20.80;92.80;;;;;;5036826;28;20046;-74
2022/05/26 08:29:19;;;;;;;5.20;1.08;;;20.80;93.00;;;;;;5024007;28;20072;-74
2022/05/26 08:31:46;;;;;;;3.72;0.70;;;21.10;92.50;;;;;;5038113;28;20058;-75
2022/05/26 08:34:14;;;;;;;4.70;1.52;;;21.20;92.60;;;;;;5037006;28;20048;-73
2022/05/26 08:36:40;;;;;;;2.72;1.00;;;22.50;92.20;;;;;;5027402;28;20042;-74
2022/05/26 08:39:06;;;;;;;3.95;1.30;;;24.20;91.10;;;;;;5036023;28;20037;-73
2022/05/26 08:41:40;;;;;;;6.78;1.60;;;25.20;89.40;;;;;;5038021;28;20037;-75
2022/05/26 08:44:11;;;;;;;7.50;1.92;;;25.80;87.40;;;;;;5043059;28;20045;-74
2022/05/26 08:47:05;;;;;;;7.55;2.53;;;26.60;86.10;;;;;;5058398;28;20401;-74
2022/05/26 08:49:35;;;;;;;5.38;1.55;;;27.20;83.50;;;;;;5001295;28;20045;-73
2022/05/26 08:52:05;;;;;;;6.45;1.40;;;27.70;82.70;;;;;;5020345;28;20512;-75
2022/05/26 08:54:37;;;;;;;3.55;1.23;;;28.00;81.60;;;;;;5004284;28;20038;-75
2022/05/26 08:57:06;;;;;;;3.38;1.30;;;27.80;80.60;;;;;;5006401;28;20282;-76
2022/05/26 08:59:44;;;;;;;1.83;0.88;;;27.90;79.70;;;;;;5009320;28;20542;-74
2022/05/26 09:02:31;;;;;;;3.00;0.90;;;26.80;79.70;;;;;;5051316;28;20521;-73
2022/05/26 09:05:01;;;;;;;2.80;0.90;;;26.80;80.40;;;;;;5003735;28;20505;-74
2022/05/26 09:13:30;;;;;;;2.97;0.75;;;28.00;77.20;;;;;;5022635;28;20056;-74
2022/05/26 09:15:59;;;;;;;5.00;1.10;;;29.10;76.50;;;;;;5053724;28;20047;-73
2022/05/26 09:18:25;;;;;;;2.30;1.08;;;30.10;75.60;;;;;;5035526;28;20450;-73
2022/05/26 09:20:52;;;;;;;9.38;1.42;;;28.90;72.00;;;;;;5027529;28;20044;-74
2022/05/26 09:23:27;;;;;;;6.25;0.90;;;28.50;73.30;;;;;;5003528;28;20088;-73
2022/05/26 09:26:16;;;;;;;2.90;1.00;;;28.20;75.30;;;;;;5018145;28;20034;-75
2022/05/26 09:28:51;;;;;;;2.85;1.00;;;27.90;75.20;;;;;;5001168;28;20573;-74
2022/05/26 09:31:27;;;;;;;3.35;0.80;;;27.70;75.00;;;;;;5000493;28;20038;-74
2022/05/26 09:34:17;;;;;;;1.60;0.90;;;28.90;74.60;;;;;;5000860;28;20410;-74
2022/05/26 09:37:07;;;;;;;2.08;1.02;;;28.40;73.90;;;;;;5022750;28;20077;-74
2022/05/26 09:39:43;;;;;;;2.42;0.82;;;28.40;74.60;;;;;;5018739;28;20438;-74
2022/05/26 09:42:16;;;;;;;4.47;0.90;;;29.00;74.50;;;;;;5043916;28;20394;-74
2022/05/26 09:45:03;;;;;;;3.85;0.90;;;29.50;73.40;;;;;;5038130;28;20400;-74
2022/05/26 09:47:32;;;;;;;4.82;1.00;;;30.40;72.40;;;;;;5026252;28;20041;-74
2022/05/26 09:50:01;;;;;;;4.60;1.08;;;29.00;70.80;;;;;;5038989;28;20392;-73
2022/05/26 09:52:38;;;;;;;4.57;1.00;;;29.60;71.50;;;;;;5021177;28;20034;-75
2022/05/26 09:55:41;;;;;;;3.03;0.98;;;30.20;70.70;;;;;;5024277;28;20489;-75
2022/05/26 09:58:12;;;;;;;3.42;0.95;;;30.60;70.60;;;;;;5018807;28;20033;-75
2022/05/26 10:00:47;;;;;;;4.13;0.93;;;29.10;69.40;;;;;;5037463;28;20061;-74
2022/05/26 10:04:01;;;;;;;5.45;1.00;;;28.80;70.20;;;;;;5037895;28;20037;-74
2022/05/26 10:06:45;;;;;;;2.85;0.77;;;29.10;71.10;;;;;;5021339;28;20076;-73
2022/05/26 10:09:25;;;;;;;5.10;1.00;;;29.10;70.60;;;;;;5025412;28;20061;-75
2022/05/26 10:12:04;;;;;;;4.10;1.00;;;29.60;69.60;;;;;;5025934;28;20037;-74
2022/05/26 10:14:39;;;;;;;5.38;1.13;;;29.50;69.10;;;;;;5022542;28;20820;-74
2022/05/26 10:17:19;;;;;;;6.88;1.27;;;29.90;69.00;;;;;;5023466;28;20042;-75
2022/05/26 10:20:08;;;;;;;5.05;1.25;;;29.50;69.20;;;;;;5027207;28;20064;-74
2022/05/26 10:22:44;;;;;;;2.42;1.30;;;29.10;70.20;;;;;;5025360;28;20045;-75
2022/05/26 10:25:43;;;;;;;5.07;0.98;;;28.70;69.90;;;;;;5033703;28;20028;-75
2022/05/26 10:28:35;;;;;;;3.70;1.00;;;28.00;69.40;;;;;;5019830;28;20501;-75
2022/05/26 10:31:12;;;;;;;5.40;1.10;;;28.30;69.10;;;;;;5022761;28;20512;-74
2022/05/26 10:33:57;;;;;;;4.93;1.48;;;29.30;68.70;;;;;;5026336;28;20482;-74
2022/05/26 10:36:31;;;;;;;6.90;1.60;;;29.60;68.90;;;;;;5009199;28;20037;-75
2022/05/26 10:39:25;;;;;;;4.72;1.65;;;30.00;69.70;;;;;;5042569;28;20049;-75
2022/05/26 10:42:13;;;;;;;5.85;2.00;;;30.40;70.60;;;;;;5015864;28;20515;-75
2022/05/26 10:44:52;;;;;;;4.82;1.48;;;30.70;70.60;;;;;;5038050;28;20235;-74
2022/05/26 10:47:32;;;;;;;5.35;1.90;;;30.30;70.50;;;;;;5027523;28;20037;-74
2022/05/26 10:50:12;;;;;;;6.70;1.67;;;30.40;70.10;;;;;;5021072;28;20045;-75
2022/05/26 10:52:47;;;;;;;6.53;1.45;;;29.80;70.30;;;;;;5026790;28;20071;-75
2022/05/26 10:55:26;;;;;;;6.07;1.55;;;29.60;69.60;;;;;;5027209;28;20038;-74
2022/05/26 10:58:20;;;;;;;6.43;1.40;;;28.90;70.60;;;;;;5024162;28;20045;-75
2022/05/26 11:00:55;;;;;;;6.25;1.65;;;28.50;71.30;;;;;;5023872;28;20140;-75
2022/05/26 11:03:37;;;;;;;7.97;1.63;;;29.30;71.40;;;;;;5025059;28;20067;-75
2022/05/26 11:06:18;;;;;;;7.97;1.40;;;29.40;71.80;;;;;;5036997;28;20034;-74
2022/05/26 11:09:02;;;;;;;8.60;1.80;;;29.40;72.40;;;;;;5040703;28;20057;-74
2022/05/26 11:11:44;;;;;;;9.98;2.20;;;30.00;73.20;;;;;;5035187;28;20270;-74
2022/05/26 11:18:04;;;;;;;6.78;1.48;;;30.20;72.90;;;;;;5011110;28;20060;-74
2022/05/26 11:20:38;;;;;;;3.78;1.10;;;30.40;73.30;;;;;;5051591;28;20496;-75
2022/05/26 11:23:04;;;;;;;3.72;1.30;;;29.80;72.60;;;;;;5054596;28;20128;-76
2022/05/26 11:25:58;;;;;;;7.72;1.48;;;27.80;73.70;;;;;;5026081;28;20034;-76
2022/05/26 11:28:34;;;;;;;6.00;1.40;;;27.50;74.70;;;;;;5035642;28;20125;-76
2022/05/26 11:37:28;;;;;;;8.60;1.88;;;26.90;75.70;;;;;;5021579;28;20052;-75
2022/05/26 11:40:02;;;;;;;7.13;1.42;;;27.20;75.90;;;;;;5012149;28;20041;-74
2022/05/26 11:42:31;;;;;;;7.57;1.55;;;26.90;76.40;;;;;;5021142;28;20342;-75
2022/05/26 11:45:13;;;;;;;4.88;1.30;;;25.40;76.70;;;;;;5022926;28;20040;-75
2022/05/26 11:48:01;;;;;;;4.28;1.38;;;26.40;77.10;;;;;;5036533;28;20052;-74
2022/05/26 11:50:42;;;;;;;8.93;1.48;;;26.50;76.40;;;;;;5017807;28;20053;-75
2022/05/26 11:53:14;;;;;;;6.50;1.50;;;27.50;76.50;;;;;;5033773;28;20045;-75
2022/05/26 11:55:50;;;;;;;4.30;1.65;;;27.30;76.50;;;;;;5037241;28;20389;-75
2022/05/26 11:58:32;;;;;;;17.30;2.58;;;27.40;75.60;;;;;;5026419;28;20045;-75
2022/05/26 12:01:21;;;;;;;5.55;1.38;;;27.40;74.60;;;;;;5046156;28;20038;-74
2022/05/26 12:03:54;;;;;;;5.22;1.45;;;27.00;74.10;;;;;;5014579;28;20127;-75
2022/05/26 12:06:37;;;;;;;6.25;1.25;;;27.60;74.40;;;;;;5014882;28;20543;-75
2022/05/26 12:09:05;;;;;;;3.15;1.27;;;28.00;74.00;;;;;;5017923;28;20120;-74
2022/05/26 12:12:09;;;;;;;3.88;1.30;;;27.80;74.00;;;;;;5043758;28;20042;-74
2022/05/26 12:14:47;;;;;;;3.60;1.30;;;28.30;73.80;;;;;;5054989;28;20033;-74
2022/05/26 12:17:30;;;;;;;8.75;1.77;;;28.20;73.10;;;;;;5041330;28;20068;-74
2022/05/26 12:19:58;;;;;;;2.50;1.02;;;28.10;74.40;;;;;;5024546;28;20056;-73
2022/05/26 12:22:32;;;;;;;4.28;1.20;;;26.60;75.90;;;;;;5042535;28;20029;-76
2022/05/26 12:25:28;;;;;;;3.72;1.35;;;26.10;77.10;;;;;;5028224;28;20041;-73
2022/05/26 12:27:54;;;;;;;4.60;1.40;;;27.30;76.40;;;;;;5024587;28;20029;-73
2022/05/26 12:30:46;;;;;;;6.70;1.30;;;27.30;74.10;;;;;;5027955;28;20527;-72
2022/05/26 12:33:47;;;;;;;7.03;1.40;;;27.30;74.70;;;;;;5010964;28;20628;-75
2022/05/26 12:36:53;;;;;;;4.55;0.93;;;26.80;74.50;;;;;;5032474;28;20045;-73
2022/05/26 12:39:51;;;;;;;4.55;1.60;;;27.00;75.00;;;;;;5047306;28;20120;-76
2022/05/26 12:42:32;;;;;;;4.80;1.10;;;27.60;75.50;;;;;;5028069;28;20481;-73
2022/05/26 12:45:10;;;;;;;3.17;1.25;;;28.30;75.20;;;;;;5037835;28;20037;-74
2022/05/26 12:47:54;;;;;;;4.18;1.20;;;27.50;74.50;;;;;;5022785;28;20136;-73
2022/05/26 12:50:24;;;;;;;5.65;1.30;;;26.80;73.40;;;;;;5034829;28;20077;-73
2022/05/26 12:52:57;;;;;;;12.35;1.85;;;27.30;73.40;;;;;;5012853;28;20046;-74
2022/05/26 12:55:38;;;;;;;5.80;1.50;;;27.50;73.00;;;;;;5038689;28;20046;-73
2022/05/26 12:58:10;;;;;;;4.47;1.30;;;27.10;73.10;;;;;;5032960;28;20490;-74
2022/05/26 13:00:37;;;;;;;;;;;28.30;73.90;;;;;;5026486;28;20034;-74
2022/05/26 13:03:35;;;;;;;2.90;0.93;;;27.60;70.60;;;;;;5037549;28;19956;-75
2022/05/26 13:06:30;;;;;;;3.85;1.20;;;28.40;72.10;;;;;;5018268;28;20084;-73
2022/05/26 13:09:14;;;;;;;3.63;1.27;;;29.00;72.30;;;;;;5022516;28;20107;-74
2022/05/26 13:11:53;;;;;;;4.18;1.35;;;29.20;71.40;;;;;;5038296;28;20132;-75
2022/05/26 13:14:33;;;;;;;7.85;1.42;;;28.80;71.90;;;;;;5020054;28;20037;-74
2022/05/26 13:17:02;;;;;;;3.80;1.27;;;27.80;74.80;;;;;;5037617;28;20037;-75
2022/05/26 13:19:30;;;;;;;4.20;1.50;;;27.60;75.30;;;;;;5024704;28;20641;-74
2022/05/26 13:21:58;;;;;;;7.60;2.22;;;27.00;74.30;;;;;;5023740;28;20119;-74
2022/05/26 13:24:29;;;;;;;7.28;1.52;;;27.10;74.30;;;;;;5020746;28;20037;-75
2022/05/26 13:26:57;;;;;;;6.78;2.35;;;27.30;73.20;;;;;;5053634;28;20490;-75
2022/05/26 13:29:25;;;;;;;7.63;1.25;;;27.70;72.90;;;;;;5022435;28;20127;-75
2022/05/26 13:34:45;;;;;;;3.22;0.80;;;28.40;72.10;;;;;;5019383;28;20048;-73
2022/05/26 13:37:29;;;;;;;5.15;1.27;;;28.30;72.40;;;;;;5026327;28;20045;-75
2022/05/26 13:40:18;;;;;;;4.63;1.10;;;28.20;72.80;;;;;;5025886;28;20084;-74
2022/05/26 13:42:48;;;;;;;5.93;1.17;;;28.70;72.10;;;;;;5038462;28;20037;-75
2022/05/26 13:45:29;;;;;;;18.17;3.30;;;28.10;71.20;;;;;;5033545;28;20046;-74
2022/05/26 13:48:31;;;;;;;6.65;1.50;;;27.10;71.80;;;;;;5035867;28;20042;-73
2022/05/26 13:51:17;;;;;;;;;;;27.50;70.10;;;;;;5028343;28;20532;-74
2022/05/26 13:53:50;;;;;;;6.97;1.13;;;27.40;70.90;;;;;;5014443;28;19921;-74
2022/05/26 13:56:33;;;;;;;5.18;1.23;;;26.50;71.00;;;;;;5010695;28;20045;-73
2022/05/26 13:59:04;;;;;;;6.00;1.55;;;27.30;70.50;;;;;;5023891;28;20678;-73
2022/05/26 14:01:30;;;;;;;7.28;1.35;;;26.80;70.90;;;;;;5015129;28;20092;-74